This is the latest recevied weather packets stored in our database for station/object n3uvr. If no packets are shown the sender has not sent any weather packets the latest 1 day(s).
| Time | Temp. | Humidity | Pressure | Rain* | Wind** | Luminosity | Snow |
|---|---|---|---|---|---|---|---|
| 1778055146 | 16.67° C | 66% | 1006.1 hPa | 0 mm | - | 0 W/m² | - |
| 1778053995 | 16.67° C | 65% | 1006.4 hPa | 0 mm | - | 0 W/m² | - |
| 1778053394 | 16.67° C | 65% | 1006.3 hPa | 0 mm | - | 0 W/m² | - |
| 1778052772 | 16.11° C | 64% | 1006.3 hPa | 0 mm | - | 0 W/m² | - |
| 1778052139 | 16.11° C | 65% | 1006.4 hPa | 0 mm | - | 0 W/m² | - |
| 1778051525 | 16.11° C | 67% | 1006.5 hPa | 0 mm | - | 0 W/m² | - |
| 1778050319 | 15.56° C | 69% | 1006.6 hPa | 0 mm | - | 0 W/m² | - |
| 1778047284 | 15.56° C | 71% | 1007 hPa | 0 mm | - | 0 W/m² | - |
| 1778045524 | 16.11° C | 68% | 1007 hPa | 0 mm | - | 0 W/m² | - |
| 1778044931 | 16.67° C | 67% | 1007 hPa | 0 mm | - | 0 W/m² | - |
| 1778042509 | 17.22° C | 65% | 1007.2 hPa | 0 mm | - | 0 W/m² | - |
| 1778041890 | 17.78° C | 64% | 1007.3 hPa | 0 mm | - | 0 W/m² | - |
| 1778041290 | 17.78° C | 63% | 1007.4 hPa | 0 mm | - | 0 W/m² | - |
| 1778038286 | 19.44° C | 58% | 1007.1 hPa | 0 mm | - | 0 W/m² | - |
| 1778037076 | 20° C | 56% | 1007 hPa | 0 mm | - | 0 W/m² | - |
| 1778036472 | 20° C | 56% | 1007.2 hPa | 0 mm | - | 0 W/m² | - |
| 1778035255 | 20.56° C | 54% | 1007.2 hPa | 0 mm | - | 0 W/m² | - |
| 1778034673 | 21.11° C | 53% | 1007.2 hPa | 0 mm | - | 0 W/m² | - |
| 1778034080 | 21.11° C | 53% | 1007.1 hPa | 0 mm | - | 0 W/m² | - |
| 1778033475 | 21.11° C | 51% | 1007 hPa | 0 mm | - | 0 W/m² | - |
| 1778032258 | 21.67° C | 50% | 1006.7 hPa | 0 mm | - | 0 W/m² | - |
| 1778027459 | 22.78° C | 48% | 1006.1 hPa | 0 mm | - | 0 W/m² | - |
| 1778022087 | 23.33° C | 48% | 1005.5 hPa | 0 mm | - | 19 W/m² | - |
| 1778021497 | 23.33° C | 48% | 1005.5 hPa | 0 mm | - | 18 W/m² | - |
| 1778019677 | 23.89° C | 46% | 1005.6 hPa | 0 mm | - | 37 W/m² | - |
* Rain latest hour (hover to see other rain measurements)
** Current wind speed in m/s (hover to see current wind gust speed)